Time;durP1;ratioP1;P1;durP2;ratioP2;P2;SDS_P1;SDS_P2;PMS_P1;PMS_P2;Temp;Humidity;BMP_temperature;BMP_pressure;BME280_temperature;BME280_humidity;BME280_pressure;Samples;Min_cycle;Max_cycle;Signal;HPM_P1;HPM_P2
2021/06/11 00:01:03;;;;;;;1.35;1.20;;;25.50;46.30;;;;;;4956478;28;20034;-80
2021/06/11 00:03:29;;;;;;;1.58;1.45;;;25.50;46.40;;;;;;4939350;28;20053;-80
2021/06/11 00:05:54;;;;;;;2.55;1.60;;;25.50;46.50;;;;;;4985515;28;20548;-79
2021/06/11 00:08:20;;;;;;;1.80;1.60;;;25.40;46.50;;;;;;4952631;28;20515;-80
2021/06/11 00:10:46;;;;;;;1.63;1.38;;;25.40;46.50;;;;;;4957242;28;20038;-80
2021/06/11 00:13:12;;;;;;;1.80;1.60;;;25.40;46.60;;;;;;4968553;28;20090;-80
2021/06/11 00:15:38;;;;;;;1.80;1.60;;;25.30;46.60;;;;;;4943539;28;20475;-80
2021/06/11 00:18:04;;;;;;;1.80;1.35;;;25.30;46.70;;;;;;4972381;28;20027;-81
2021/06/11 00:20:31;;;;;;;2.38;1.60;;;25.30;46.80;;;;;;4940483;29;20038;-80
2021/06/11 00:22:56;;;;;;;2.00;1.60;;;25.30;46.80;;;;;;4937643;28;20550;-80
2021/06/11 00:25:24;;;;;;;1.90;1.48;;;25.20;46.80;;;;;;4986718;28;20031;-80
2021/06/11 00:28:01;;;;;;;2.17;1.63;;;25.20;46.90;;;;;;4988307;28;20026;-80
2021/06/11 00:30:28;;;;;;;2.83;1.80;;;25.10;46.90;;;;;;4968734;28;20081;-80
2021/06/11 00:32:55;;;;;;;2.05;1.58;;;25.10;47.00;;;;;;4967142;28;20035;-79
2021/06/11 00:35:21;;;;;;;2.13;1.58;;;25.10;47.00;;;;;;4946807;28;20030;-80
2021/06/11 00:37:47;;;;;;;1.67;1.40;;;25.10;47.10;;;;;;4972165;28;20031;-80
2021/06/11 00:40:13;;;;;;;2.17;1.55;;;25.00;47.10;;;;;;4938126;28;20038;-80
2021/06/11 00:42:39;;;;;;;2.67;1.80;;;25.00;47.20;;;;;;4956143;28;20027;-80
2021/06/11 00:45:07;;;;;;;1.77;1.45;;;25.00;47.30;;;;;;4955758;28;20081;-79
2021/06/11 00:47:33;;;;;;;3.13;2.00;;;24.90;47.30;;;;;;4939135;28;20034;-79
2021/06/11 00:49:59;;;;;;;1.95;1.55;;;24.90;47.30;;;;;;4971703;28;20090;-80
2021/06/11 00:52:25;;;;;;;2.45;1.70;;;24.90;47.40;;;;;;4942026;28;20108;-80
2021/06/11 00:54:51;;;;;;;3.20;1.98;;;24.80;47.40;;;;;;4988505;28;20464;-78
2021/06/11 00:57:17;;;;;;;2.50;1.77;;;24.80;47.50;;;;;;4971513;28;20038;-80
2021/06/11 00:59:43;;;;;;;2.08;1.65;;;24.80;47.50;;;;;;4936821;29;20396;-80
2021/06/11 01:02:11;;;;;;;2.15;1.65;;;24.80;47.60;;;;;;4966172;28;20031;-80
2021/06/11 01:04:37;;;;;;;2.58;1.80;;;24.70;47.60;;;;;;4971488;28;20045;-80
2021/06/11 01:07:50;;;;;;;2.17;1.67;;;24.70;47.70;;;;;;4939749;28;20027;-80
2021/06/11 01:10:17;;;;;;;1.60;1.50;;;24.70;47.90;;;;;;4971112;28;20039;-82
2021/06/11 01:12:45;;;;;;;1.92;1.50;;;24.60;47.70;;;;;;4968493;28;20098;-80
2021/06/11 01:15:12;;;;;;;1.60;1.50;;;24.60;47.90;;;;;;4963495;28;20489;-80
2021/06/11 01:17:42;;;;;;;1.85;1.63;;;24.60;47.90;;;;;;4938000;28;20063;-80
2021/06/11 01:20:11;;;;;;;1.98;1.60;;;24.50;47.90;;;;;;4967055;28;20075;-80
2021/06/11 01:23:15;;;;;;;2.13;1.70;;;24.50;48.00;;;;;;4970408;28;20066;-80
2021/06/11 01:25:57;;;;;;;1.55;1.45;;;24.50;48.20;;;;;;4991305;28;20396;-81
2021/06/11 01:28:26;;;;;;;2.00;1.67;;;24.40;48.10;;;;;;4975010;28;20031;-81
2021/06/11 01:30:55;;;;;;;2.67;1.58;;;24.40;48.20;;;;;;4955487;28;20023;-81
2021/06/11 01:33:23;;;;;;;2.42;1.58;;;24.30;48.20;;;;;;4958984;28;20027;-81
2021/06/11 01:35:57;;;;;;;2.33;1.88;;;24.30;48.30;;;;;;4963524;28;20031;-80
2021/06/11 01:38:27;;;;;;;2.05;1.50;;;24.30;48.40;;;;;;4955124;28;20024;-81
2021/06/11 01:40:54;;;;;;;2.28;1.83;;;24.20;48.40;;;;;;4958324;28;20464;-80
2021/06/11 01:43:23;;;;;;;2.00;1.80;;;24.20;48.40;;;;;;4974887;28;20046;-81
2021/06/11 01:45:49;;;;;;;2.53;1.83;;;24.20;48.50;;;;;;4962562;28;20070;-81
2021/06/11 01:48:20;;;;;;;1.58;1.48;;;24.20;48.50;;;;;;4947692;28;20047;-81
2021/06/11 01:50:46;;;;;;;1.63;1.52;;;24.10;48.60;;;;;;4956710;28;20170;-81
2021/06/11 01:53:14;;;;;;;2.15;1.65;;;24.20;48.70;;;;;;4958743;28;20046;-81
2021/06/11 01:55:45;;;;;;;1.92;1.63;;;24.10;48.70;;;;;;4971614;28;20118;-80
2021/06/11 01:58:16;;;;;;;2.08;1.75;;;24.10;48.70;;;;;;4965263;28;20034;-81
2021/06/11 02:00:43;;;;;;;2.40;1.85;;;24.00;48.70;;;;;;4974108;28;20031;-80
2021/06/11 02:03:10;;;;;;;2.25;1.90;;;24.00;48.80;;;;;;4957860;28;20050;-80
2021/06/11 02:05:37;;;;;;;2.10;1.80;;;24.00;48.90;;;;;;4957837;28;20027;-80
2021/06/11 02:08:04;;;;;;;2.10;1.90;;;23.90;48.90;;;;;;4990859;28;20030;-79
2021/06/11 02:10:31;;;;;;;2.72;1.95;;;23.90;48.90;;;;;;4973070;28;20031;-80
2021/06/11 02:12:58;;;;;;;3.00;2.03;;;23.80;49.00;;;;;;4976702;28;20109;-79
2021/06/11 02:15:26;;;;;;;2.25;1.90;;;23.90;49.10;;;;;;4981337;28;20037;-79
2021/06/11 02:17:54;;;;;;;3.50;2.30;;;23.80;49.10;;;;;;4960000;28;20037;-80
2021/06/11 02:20:23;;;;;;;2.13;1.90;;;23.80;49.10;;;;;;4955865;28;20357;-81
2021/06/11 02:22:59;;;;;;;1.98;1.73;;;23.80;49.20;;;;;;4998315;28;20027;-80
2021/06/11 02:25:43;;;;;;;;;;;;;;;;;;;;;
2021/06/11 02:28:34;;;;;;;2.17;1.77;;;23.70;49.30;;;;;;4968119;28;20034;-81
2021/06/11 02:31:00;;;;;;;2.85;2.15;;;23.70;49.30;;;;;;4960390;28;20026;-79
2021/06/11 02:33:27;;;;;;;2.85;2.13;;;23.60;49.20;;;;;;4940909;28;20472;-80
2021/06/11 02:35:54;;;;;;;2.55;2.05;;;23.70;49.30;;;;;;4956381;28;20031;-80
2021/06/11 02:38:20;;;;;;;2.67;2.05;;;23.60;49.40;;;;;;4972651;28;20391;-80
2021/06/11 02:40:48;;;;;;;2.45;2.00;;;23.50;49.50;;;;;;4941702;28;20395;-80
2021/06/11 02:43:15;;;;;;;3.53;2.40;;;23.50;49.50;;;;;;4958010;28;20042;-80
2021/06/11 02:45:56;;;;;;;3.33;2.47;;;23.50;49.60;;;;;;4957719;28;20033;-80
2021/06/11 02:48:35;;;;;;;3.33;2.28;;;23.50;49.80;;;;;;4976185;28;20516;-81
2021/06/11 02:51:21;;;;;;;3.28;2.25;;;23.40;49.80;;;;;;4967870;28;20700;-80
2021/06/11 02:53:48;;;;;;;4.18;2.72;;;23.40;49.80;;;;;;4985494;28;20085;-81
2021/06/11 02:56:25;;;;;;;3.40;2.50;;;23.40;49.80;;;;;;4976480;28;20019;-80
2021/06/11 02:59:06;;;;;;;3.50;2.58;;;23.40;50.00;;;;;;4973061;28;20058;-80
2021/06/11 03:01:39;;;;;;;5.18;2.65;;;23.40;50.10;;;;;;4989555;28;20031;-80
2021/06/11 03:04:09;;;;;;;3.75;2.78;;;23.30;50.10;;;;;;4973950;28;20050;-80
2021/06/11 03:06:37;;;;;;;3.92;2.80;;;23.30;50.10;;;;;;4962436;28;20406;-81
2021/06/11 03:09:09;;;;;;;4.10;2.80;;;23.20;50.20;;;;;;4956623;28;20109;-80
2021/06/11 03:11:40;;;;;;;4.18;2.78;;;23.20;50.20;;;;;;4949053;28;20050;-81
2021/06/11 03:14:07;;;;;;;4.28;2.97;;;23.20;50.30;;;;;;4966767;28;20129;-81
2021/06/11 03:16:33;;;;;;;4.85;3.45;;;23.20;50.30;;;;;;4989147;28;20133;-80
2021/06/11 03:19:08;;;;;;;4.57;3.17;;;23.10;50.30;;;;;;4973580;28;20038;-81
2021/06/11 03:21:58;;;;;;;4.45;3.20;;;23.10;50.40;;;;;;4954061;28;20118;-80
2021/06/11 03:24:54;;;;;;;4.30;3.20;;;23.10;50.50;;;;;;4960135;28;20035;-80
2021/06/11 03:27:23;;;;;;;4.20;3.05;;;23.10;50.60;;;;;;4960635;28;20035;-80
2021/06/11 03:29:54;;;;;;;4.30;3.22;;;23.00;50.40;;;;;;4977359;28;20042;-80
2021/06/11 03:32:25;;;;;;;4.03;3.20;;;23.00;50.60;;;;;;4976417;28;20496;-81
2021/06/11 03:34:55;;;;;;;4.28;3.30;;;23.00;50.60;;;;;;4965957;28;20031;-80
2021/06/11 03:37:24;;;;;;;4.93;3.33;;;23.00;50.70;;;;;;4984393;28;20031;-80
2021/06/11 03:39:55;;;;;;;4.03;3.22;;;22.90;50.60;;;;;;4986572;28;20030;-80
2021/06/11 03:42:22;;;;;;;4.63;3.45;;;22.90;50.70;;;;;;4972741;28;20042;-79
2021/06/11 03:44:50;;;;;;;4.85;3.45;;;22.90;50.80;;;;;;4970531;28;20039;-80
2021/06/11 03:47:18;;;;;;;4.57;3.53;;;22.80;50.70;;;;;;4955230;28;20035;-81
2021/06/11 03:49:47;;;;;;;5.03;3.55;;;22.80;50.80;;;;;;4973171;28;20050;-80
2021/06/11 03:52:13;;;;;;;4.32;3.35;;;22.80;50.90;;;;;;4956004;28;20402;-80
2021/06/11 03:54:44;;;;;;;5.40;3.92;;;22.80;50.90;;;;;;4956729;28;20045;-80
2021/06/11 03:57:12;;;;;;;4.53;3.70;;;22.80;51.00;;;;;;4958999;28;20031;-80
2021/06/11 03:59:41;;;;;;;4.90;3.70;;;22.80;51.00;;;;;;4972331;28;20023;-81
2021/06/11 04:02:06;;;;;;;5.20;3.95;;;22.70;51.00;;;;;;4940590;28;20059;-80
2021/06/11 04:04:33;;;;;;;5.00;3.78;;;22.70;51.00;;;;;;4940599;28;20085;-81
2021/06/11 04:07:11;;;;;;;5.25;3.63;;;22.70;51.00;;;;;;4956545;28;20049;-80
2021/06/11 04:09:48;;;;;;;5.00;3.90;;;22.70;51.10;;;;;;4973677;28;20038;-80
2021/06/11 04:12:22;;;;;;;4.75;3.53;;;22.60;51.20;;;;;;4972702;28;20019;-80
2021/06/11 04:14:51;;;;;;;5.50;4.10;;;22.60;51.20;;;;;;4988515;28;20042;-80
2021/06/11 04:17:24;;;;;;;5.28;4.13;;;22.60;51.20;;;;;;4955668;28;20030;-79
2021/06/11 04:19:56;;;;;;;6.03;4.03;;;22.60;51.20;;;;;;4972013;28;20408;-80
2021/06/11 04:22:34;;;;;;;5.38;4.03;;;22.50;51.20;;;;;;4982597;28;20031;-80
2021/06/11 04:25:02;;;;;;;5.38;4.13;;;22.50;51.30;;;;;;4968904;28;20031;-80
2021/06/11 04:27:29;;;;;;;4.97;3.72;;;22.50;51.30;;;;;;4965411;28;20027;-80
2021/06/11 04:29:56;;;;;;;5.57;3.88;;;22.40;51.30;;;;;;4988101;28;20034;-80
2021/06/11 04:32:21;;;;;;;5.00;3.85;;;22.40;51.30;;;;;;4968753;28;20027;-80
2021/06/11 04:34:47;;;;;;;4.93;3.75;;;22.40;51.40;;;;;;4954981;28;20125;-80
2021/06/11 04:37:18;;;;;;;6.35;4.05;;;22.40;51.40;;;;;;4943405;28;20114;-79
2021/06/11 04:39:45;;;;;;;4.72;3.50;;;22.40;51.50;;;;;;4971640;28;20030;-80
2021/06/11 04:42:11;;;;;;;5.68;4.38;;;22.30;51.40;;;;;;4972990;28;20503;-79
2021/06/11 04:44:38;;;;;;;4.97;3.60;;;22.30;51.50;;;;;;4987778;28;20050;-79
2021/06/11 04:47:03;;;;;;;4.53;3.67;;;22.30;51.50;;;;;;4960625;28;20034;-79
2021/06/11 04:49:29;;;;;;;4.97;3.72;;;22.30;52.10;;;;;;4940887;28;20035;-84
2021/06/11 04:51:55;;;;;;;5.63;4.25;;;22.30;51.60;;;;;;4963519;28;20519;-83
2021/06/11 04:54:21;;;;;;;4.85;3.63;;;22.30;51.60;;;;;;4977205;28;20031;-83
2021/06/11 04:56:47;;;;;;;5.57;4.10;;;22.30;51.60;;;;;;4969784;28;20035;-83
2021/06/11 04:59:13;;;;;;;5.80;3.75;;;22.20;51.60;;;;;;4973271;28;20030;-83
2021/06/11 05:01:39;;;;;;;5.15;3.80;;;22.20;51.60;;;;;;4975940;28;20038;-83
2021/06/11 05:04:05;;;;;;;4.53;3.50;;;22.20;51.70;;;;;;4994969;28;20496;-83
2021/06/11 05:06:31;;;;;;;5.60;4.22;;;22.20;51.70;;;;;;4993169;28;20035;-83
2021/06/11 05:08:57;;;;;;;5.60;4.25;;;22.20;51.70;;;;;;4955755;28;20352;-82
2021/06/11 05:11:23;;;;;;;5.93;4.40;;;22.20;51.80;;;;;;4977543;28;20038;-82
2021/06/11 05:13:48;;;;;;;5.72;3.95;;;22.20;51.80;;;;;;4946297;28;20046;-82
2021/06/11 05:16:14;;;;;;;5.10;3.83;;;22.20;51.90;;;;;;4970158;28;20070;-82
2021/06/11 05:18:40;;;;;;;5.45;4.07;;;22.20;51.90;;;;;;4946364;28;20033;-82
2021/06/11 05:21:06;;;;;;;5.50;3.75;;;22.20;52.00;;;;;;4957576;28;20039;-82
2021/06/11 05:23:32;;;;;;;5.18;3.65;;;22.20;52.00;;;;;;4965491;28;20130;-83
2021/06/11 05:25:58;;;;;;;5.28;3.90;;;22.20;52.10;;;;;;4969448;28;20122;-83
2021/06/11 05:28:24;;;;;;;5.88;4.05;;;22.20;52.10;;;;;;4977446;28;20022;-82
2021/06/11 05:30:52;;;;;;;5.25;4.00;;;22.20;52.10;;;;;;4994490;28;20039;-81
2021/06/11 05:33:18;;;;;;;5.55;4.18;;;22.20;52.10;;;;;;4946172;28;20074;-82
2021/06/11 05:35:44;;;;;;;5.53;3.85;;;22.20;52.10;;;;;;4973143;28;20031;-81
2021/06/11 05:38:14;;;;;;;5.75;4.22;;;22.20;52.10;;;;;;4986931;28;20027;-81
2021/06/11 05:40:41;;;;;;;5.38;4.00;;;22.20;52.20;;;;;;4977530;28;20471;-82
2021/06/11 05:43:07;;;;;;;5.40;3.78;;;22.20;52.20;;;;;;4983168;28;20041;-82
2021/06/11 05:45:33;;;;;;;5.18;3.80;;;22.20;52.20;;;;;;4974147;28;20456;-82
2021/06/11 05:47:59;;;;;;;5.35;3.85;;;22.20;52.40;;;;;;4970668;28;20106;-82
2021/06/11 05:50:27;;;;;;;5.75;4.30;;;22.10;52.30;;;;;;4956504;28;20064;-82
2021/06/11 05:52:53;;;;;;;5.72;4.07;;;22.20;52.30;;;;;;4960356;28;20048;-82
2021/06/11 05:55:19;;;;;;;5.32;4.00;;;22.20;52.40;;;;;;4945945;28;20066;-82
2021/06/11 05:57:45;;;;;;;5.38;4.00;;;22.10;52.40;;;;;;4952262;28;20507;-81
2021/06/11 06:00:11;;;;;;;6.10;4.00;;;22.20;52.40;;;;;;4946430;28;20066;-81
2021/06/11 06:02:37;;;;;;;5.30;3.83;;;22.20;52.50;;;;;;4984957;28;20031;-82
2021/06/11 06:05:04;;;;;;;5.20;3.63;;;22.20;52.50;;;;;;4974715;28;20042;-82
2021/06/11 06:07:30;;;;;;;5.50;3.80;;;22.10;52.50;;;;;;4964684;28;20122;-82
2021/06/11 06:09:57;;;;;;;5.75;4.03;;;22.20;52.50;;;;;;4955907;28;20110;-80
2021/06/11 06:12:23;;;;;;;4.95;3.63;;;22.20;52.60;;;;;;4943807;28;20082;-81
2021/06/11 06:14:49;;;;;;;5.18;3.83;;;22.20;52.60;;;;;;4958929;28;20031;-81
2021/06/11 06:17:14;;;;;;;5.43;3.92;;;22.20;52.70;;;;;;4976102;28;20038;-82
2021/06/11 06:19:43;;;;;;;5.00;3.67;;;22.20;52.70;;;;;;4957255;28;20074;-82
2021/06/11 06:22:10;;;;;;;5.47;3.67;;;22.20;52.70;;;;;;4943956;28;20042;-83
2021/06/11 06:24:36;;;;;;;4.95;3.58;;;22.20;52.70;;;;;;4959183;28;20077;-82
2021/06/11 06:27:01;;;;;;;5.07;3.58;;;22.20;53.30;;;;;;4974612;28;20071;-83
2021/06/11 06:29:27;;;;;;;5.03;3.28;;;22.20;52.70;;;;;;4959179;28;20105;-83
2021/06/11 06:31:53;;;;;;;5.03;3.75;;;22.30;52.80;;;;;;4958479;28;20563;-83
2021/06/11 06:34:21;;;;;;;4.28;3.33;;;22.20;52.70;;;;;;4942865;28;20388;-83
2021/06/11 06:36:47;;;;;;;5.78;3.80;;;22.30;52.80;;;;;;4958702;28;20113;-83
2021/06/11 06:39:13;;;;;;;5.70;3.85;;;22.30;52.80;;;;;;4958381;28;20050;-83
2021/06/11 06:41:39;;;;;;;5.20;3.30;;;22.30;52.90;;;;;;4959074;28;20035;-83
2021/06/11 06:44:05;;;;;;;5.50;3.70;;;22.30;52.90;;;;;;4938596;29;20039;-82
2021/06/11 06:46:33;;;;;;;4.78;3.50;;;22.30;52.90;;;;;;4980493;28;20031;-83
2021/06/11 06:49:00;;;;;;;4.65;3.20;;;22.30;52.90;;;;;;4957255;28;20035;-84
2021/06/11 06:51:31;;;;;;;5.28;3.60;;;22.30;53.00;;;;;;4991022;28;20055;-85
2021/06/11 06:53:59;;;;;;;4.38;3.20;;;22.30;53.00;;;;;;4987142;28;20082;-82
2021/06/11 06:56:25;;;;;;;3.88;2.92;;;22.30;53.00;;;;;;4986065;28;20523;-82
2021/06/11 06:58:52;;;;;;;4.82;3.60;;;22.30;53.00;;;;;;4974174;28;20122;-82
2021/06/11 07:01:18;;;;;;;4.50;3.38;;;22.40;53.00;;;;;;4985357;28;20011;-82
2021/06/11 07:03:45;;;;;;;4.82;3.40;;;22.30;53.00;;;;;;4986623;28;20035;-81
2021/06/11 07:06:10;;;;;;;4.40;3.03;;;22.40;53.10;;;;;;4966571;28;20035;-80
2021/06/11 07:08:36;;;;;;;4.70;3.10;;;22.30;53.00;;;;;;4972710;28;20038;-81
2021/06/11 07:11:02;;;;;;;4.82;3.58;;;22.40;53.10;;;;;;4956620;28;20031;-82
2021/06/11 07:13:32;;;;;;;5.15;3.50;;;22.40;53.10;;;;;;4964799;28;20034;-81
2021/06/11 07:15:58;;;;;;;3.85;2.60;;;22.40;53.10;;;;;;4969851;28;20023;-80
2021/06/11 07:18:24;;;;;;;4.00;3.10;;;22.40;53.10;;;;;;4970815;28;20030;-79
2021/06/11 07:20:49;;;;;;;5.05;3.35;;;22.40;53.10;;;;;;4969823;28;20081;-81
2021/06/11 07:23:15;;;;;;;3.63;2.88;;;22.40;53.10;;;;;;4951870;28;20039;-82
2021/06/11 07:25:41;;;;;;;4.72;3.30;;;22.50;53.10;;;;;;4929097;28;20026;-82
2021/06/11 07:28:07;;;;;;;4.45;3.30;;;22.50;53.10;;;;;;4972185;28;20207;-81
2021/06/11 07:30:32;;;;;;;5.35;3.47;;;22.50;53.00;;;;;;4960227;28;20041;-81
2021/06/11 07:32:59;;;;;;;4.20;2.90;;;22.50;53.10;;;;;;4989735;28;20053;-83
2021/06/11 07:35:25;;;;;;;5.13;3.53;;;22.50;53.00;;;;;;4973574;28;20498;-80
2021/06/11 07:37:50;;;;;;;4.40;3.17;;;22.60;53.10;;;;;;4972497;28;20139;-80
2021/06/11 07:40:16;;;;;;;6.95;4.03;;;22.60;53.00;;;;;;4939895;28;20046;-80
2021/06/11 07:42:42;;;;;;;5.07;3.55;;;22.70;53.00;;;;;;4972138;28;20045;-80
2021/06/11 07:45:09;;;;;;;6.75;3.75;;;22.70;52.90;;;;;;4964271;28;20035;-80
2021/06/11 07:47:35;;;;;;;5.78;4.18;;;22.80;52.90;;;;;;4973989;28;20472;-82
2021/06/11 07:50:03;;;;;;;9.02;5.38;;;22.80;53.30;;;;;;4957097;28;20035;-81
2021/06/11 07:52:31;;;;;;;8.52;5.95;;;22.80;54.10;;;;;;4972531;28;20054;-82
2021/06/11 07:54:57;;;;;;;8.98;6.00;;;22.90;54.80;;;;;;4987294;28;20081;-81
2021/06/11 07:57:22;;;;;;;7.93;5.88;;;23.00;55.20;;;;;;4956393;28;20428;-80
2021/06/11 07:59:48;;;;;;;9.32;6.15;;;23.00;55.80;;;;;;4951688;28;20083;-83
2021/06/11 08:02:15;;;;;;;8.65;6.18;;;23.10;56.10;;;;;;4973496;28;20038;-80
2021/06/11 08:04:41;;;;;;;10.23;6.30;;;23.10;56.10;;;;;;4971502;28;20118;-80
2021/06/11 08:07:06;;;;;;;9.27;6.57;;;23.20;56.10;;;;;;4968648;28;20424;-80
2021/06/11 08:09:33;;;;;;;9.32;6.03;;;23.30;56.00;;;;;;4944570;28;20498;-80
2021/06/11 08:11:59;;;;;;;8.30;6.10;;;23.30;55.90;;;;;;4956008;28;20030;-81
2021/06/11 08:14:25;;;;;;;7.78;6.18;;;23.40;55.70;;;;;;4938065;28;20030;-80
2021/06/11 08:16:51;;;;;;;7.32;5.60;;;23.40;55.60;;;;;;4955101;28;20041;-80
2021/06/11 08:19:16;;;;;;;8.18;6.07;;;23.50;55.40;;;;;;4945322;28;20478;-81
2021/06/11 08:21:42;;;;;;;6.63;5.07;;;23.60;55.30;;;;;;4971245;28;20495;-81
2021/06/11 08:24:08;;;;;;;7.28;5.57;;;23.60;55.10;;;;;;4961737;28;20043;-81
2021/06/11 08:26:34;;;;;;;7.38;5.38;;;23.70;55.00;;;;;;4971071;28;20468;-81
2021/06/11 08:29:00;;;;;;;7.07;4.88;;;23.80;54.90;;;;;;4960629;28;20027;-82
2021/06/11 08:31:26;;;;;;;7.63;5.45;;;23.80;54.70;;;;;;4967656;28;20046;-80
2021/06/11 08:33:51;;;;;;;7.47;5.03;;;23.90;54.60;;;;;;4989141;28;20098;-80
2021/06/11 08:36:17;;;;;;;6.50;4.25;;;23.90;54.50;;;;;;4983965;28;20472;-82
2021/06/11 08:38:43;;;;;;;7.07;4.50;;;24.00;54.30;;;;;;4951712;28;20038;-81
2021/06/11 08:41:12;;;;;;;7.88;4.85;;;24.10;54.30;;;;;;4955413;28;20027;-82
2021/06/11 08:43:38;;;;;;;7.63;5.05;;;24.20;54.20;;;;;;4939563;28;20047;-82
2021/06/11 08:46:05;;;;;;;6.20;4.75;;;24.20;54.00;;;;;;4955016;28;20030;-81
2021/06/11 08:48:30;;;;;;;5.70;4.22;;;24.30;53.90;;;;;;4939851;28;20035;-82
2021/06/11 08:50:56;;;;;;;6.28;4.47;;;24.40;53.80;;;;;;4955474;28;20531;-82
2021/06/11 08:53:23;;;;;;;6.28;4.72;;;24.40;53.60;;;;;;4939484;28;20672;-81
2021/06/11 08:55:49;;;;;;;6.68;4.70;;;24.50;53.60;;;;;;4971964;28;20061;-82
2021/06/11 08:58:15;;;;;;;7.07;4.32;;;24.60;53.40;;;;;;4939612;28;20034;-81
2021/06/11 09:00:43;;;;;;;5.70;4.20;;;24.70;53.40;;;;;;4952181;28;20114;-82
2021/06/11 09:03:16;;;;;;;5.65;4.20;;;24.70;53.30;;;;;;4973197;28;20027;-83
2021/06/11 09:05:45;;;;;;;7.80;4.25;;;24.80;53.20;;;;;;4982257;28;20027;-83
2021/06/11 09:08:23;;;;;;;6.00;4.43;;;24.90;53.00;;;;;;4958697;28;20019;-83
2021/06/11 09:11:07;;;;;;;6.00;4.25;;;25.00;53.00;;;;;;4942485;28;20118;-83
2021/06/11 09:13:33;;;;;;;5.60;4.00;;;25.10;52.90;;;;;;4961700;28;20117;-82
2021/06/11 09:16:18;;;;;;;6.68;3.72;;;25.20;52.70;;;;;;4988105;28;20436;-82
2021/06/11 09:18:45;;;;;;;5.20;3.63;;;25.20;52.80;;;;;;4988727;28;20027;-83
2021/06/11 09:21:31;;;;;;;5.43;3.67;;;25.30;52.60;;;;;;4971650;28;20023;-83
2021/06/11 09:24:27;;;;;;;5.07;3.63;;;25.40;52.70;;;;;;4978546;28;20043;-83
2021/06/11 09:27:10;;;;;;;5.88;3.65;;;25.50;52.60;;;;;;4959312;28;20069;-83
2021/06/11 09:29:49;;;;;;;5.18;3.78;;;25.60;53.20;;;;;;4972140;28;20035;-83
2021/06/11 09:32:28;;;;;;;5.18;3.67;;;25.60;52.40;;;;;;4972860;28;20580;-84
2021/06/11 09:34:56;;;;;;;5.47;3.80;;;25.70;52.40;;;;;;4956120;28;20041;-83
2021/06/11 09:37:31;;;;;;;5.25;3.75;;;25.80;52.30;;;;;;4970437;28;20019;-82
2021/06/11 09:40:00;;;;;;;5.03;3.60;;;25.90;52.30;;;;;;4991595;28;20026;-82
2021/06/11 09:42:28;;;;;;;5.50;4.20;;;26.00;52.30;;;;;;4959338;28;20039;-81
2021/06/11 09:44:57;;;;;;;5.75;3.88;;;26.00;52.20;;;;;;4943064;28;20494;-83
2021/06/11 09:47:47;;;;;;;5.63;3.95;;;26.10;52.20;;;;;;4974747;28;20023;-83
2021/06/11 09:50:34;;;;;;;5.63;3.63;;;26.20;52.30;;;;;;4991311;28;20031;-82
2021/06/11 09:53:03;;;;;;;5.18;3.40;;;26.30;52.20;;;;;;4984054;28;20519;-83
2021/06/11 09:55:35;;;;;;;5.00;3.33;;;26.40;52.20;;;;;;4952946;28;20039;-83
2021/06/11 09:58:14;;;;;;;5.20;3.78;;;26.40;52.20;;;;;;4946355;28;20034;-83
2021/06/11 10:00:51;;;;;;;5.22;3.35;;;26.50;52.20;;;;;;4959092;28;20030;-82
2021/06/11 10:03:23;;;;;;;5.13;3.35;;;26.50;52.10;;;;;;4998683;28;20050;-83
2021/06/11 10:05:50;;;;;;;4.70;3.33;;;26.70;52.20;;;;;;4976749;28;20494;-82
2021/06/11 10:08:17;;;;;;;5.20;3.53;;;26.70;52.10;;;;;;4974566;28;20031;-83
2021/06/11 10:10:45;;;;;;;6.15;3.75;;;26.80;52.10;;;;;;4942973;28;20061;-82
2021/06/11 10:13:12;;;;;;;4.95;3.40;;;26.90;52.20;;;;;;4958411;28;20019;-83
2021/06/11 10:15:40;;;;;;;4.82;3.50;;;26.90;52.10;;;;;;4958796;28;20038;-82
2021/06/11 10:18:07;;;;;;;4.72;3.33;;;27.00;52.00;;;;;;4974188;28;20037;-83
2021/06/11 10:20:33;;;;;;;5.40;3.60;;;27.10;52.10;;;;;;4942413;28;20047;-83
2021/06/11 10:23:00;;;;;;;4.40;3.20;;;27.20;52.00;;;;;;4965562;28;20055;-82
2021/06/11 10:25:26;;;;;;;4.60;3.20;;;27.20;52.00;;;;;;4974609;28;20031;-83
2021/06/11 10:27:54;;;;;;;5.18;3.53;;;27.30;52.00;;;;;;4957975;28;20031;-83
2021/06/11 10:30:25;;;;;;;4.55;3.13;;;27.40;52.00;;;;;;4971531;28;20068;-83
2021/06/11 10:32:51;;;;;;;3.97;2.90;;;27.50;52.00;;;;;;4974624;28;20031;-82
2021/06/11 10:35:40;;;;;;;4.30;2.92;;;27.60;51.90;;;;;;4969648;28;20019;-82
2021/06/11 10:38:11;;;;;;;4.35;2.88;;;27.70;52.00;;;;;;4968152;28;20035;-83
2021/06/11 10:40:41;;;;;;;4.68;3.35;;;27.70;51.70;;;;;;4966929;28;20427;-82
2021/06/11 10:43:19;;;;;;;4.45;3.20;;;27.90;51.80;;;;;;4973785;28;20464;-83
2021/06/11 10:45:45;;;;;;;4.60;2.80;;;27.90;51.70;;;;;;4970648;28;20118;-83
2021/06/11 10:48:11;;;;;;;5.10;3.30;;;28.00;52.30;;;;;;4979877;28;20399;-83
2021/06/11 10:50:38;;;;;;;4.07;3.00;;;28.10;51.60;;;;;;4972761;28;20511;-83
2021/06/11 10:53:15;;;;;;;3.80;2.85;;;28.10;51.60;;;;;;4945446;28;20062;-83
2021/06/11 10:55:48;;;;;;;4.18;3.10;;;28.20;51.60;;;;;;4962030;28;20121;-83
2021/06/11 10:58:14;;;;;;;4.93;3.08;;;28.30;51.60;;;;;;4957867;28;20101;-83
2021/06/11 11:00:41;;;;;;;3.85;2.75;;;28.40;51.50;;;;;;4989820;28;20463;-82
2021/06/11 11:03:22;;;;;;;4.22;3.00;;;28.50;51.50;;;;;;4957075;28;20033;-82
2021/06/11 11:05:48;;;;;;;3.38;2.55;;;28.50;51.40;;;;;;4973164;28;20359;-83
2021/06/11 11:08:14;;;;;;;4.13;2.72;;;28.60;51.30;;;;;;4973630;28;20062;-82
2021/06/11 11:10:42;;;;;;;4.38;3.00;;;28.70;51.40;;;;;;4957728;28;20038;-84
2021/06/11 11:13:14;;;;;;;4.63;3.10;;;28.70;51.30;;;;;;4973380;28;20019;-83
2021/06/11 11:15:42;;;;;;;3.92;2.75;;;28.80;51.40;;;;;;4990010;28;20471;-83
2021/06/11 11:18:10;;;;;;;4.22;3.10;;;28.80;51.30;;;;;;4953736;28;20020;-83
2021/06/11 11:20:38;;;;;;;3.95;2.72;;;28.90;51.30;;;;;;4973580;28;20387;-83
2021/06/11 11:23:24;;;;;;;3.42;2.58;;;28.90;51.30;;;;;;4957889;28;20121;-82
2021/06/11 11:25:50;;;;;;;4.15;2.90;;;29.00;51.40;;;;;;4983162;28;20038;-82
2021/06/11 11:28:17;;;;;;;4.22;2.63;;;29.10;51.50;;;;;;4988660;28;20031;-81
2021/06/11 11:30:45;;;;;;;3.90;2.90;;;29.10;51.60;;;;;;4973778;28;20031;-81
2021/06/11 11:33:12;;;;;;;4.20;2.72;;;29.20;51.70;;;;;;4961890;28;20082;-81
2021/06/11 11:35:41;;;;;;;3.53;2.50;;;29.20;51.80;;;;;;4971321;28;20027;-80
2021/06/11 11:38:08;;;;;;;3.85;2.70;;;29.20;51.80;;;;;;4972628;28;20018;-81
2021/06/11 11:40:36;;;;;;;3.95;2.70;;;29.20;51.90;;;;;;4972934;28;20035;-81
2021/06/11 11:43:02;;;;;;;3.63;2.60;;;29.30;52.00;;;;;;4971650;28;20472;-82
2021/06/11 11:45:29;;;;;;;4.30;2.88;;;29.30;52.10;;;;;;4970783;28;20031;-81
2021/06/11 11:47:57;;;;;;;4.95;2.90;;;29.30;52.20;;;;;;4960778;28;20026;-81
2021/06/11 11:50:26;;;;;;;3.70;2.65;;;29.30;52.20;;;;;;4972187;28;20038;-81
2021/06/11 11:52:51;;;;;;;3.95;3.05;;;29.30;52.20;;;;;;4962582;28;20055;-81
2021/06/11 11:55:17;;;;;;;4.63;3.10;;;29.40;52.40;;;;;;4955865;28;20066;-82
2021/06/11 11:57:45;;;;;;;4.20;2.78;;;29.30;52.30;;;;;;4940020;28;20035;-81
2021/06/11 12:00:13;;;;;;;3.53;2.72;;;29.40;52.50;;;;;;4987855;28;20089;-81
2021/06/11 12:02:39;;;;;;;4.40;2.55;;;29.40;52.60;;;;;;4973103;28;20019;-80
2021/06/11 12:05:07;;;;;;;4.20;2.88;;;29.40;52.50;;;;;;4972136;28;20071;-81
2021/06/11 12:07:33;;;;;;;3.78;2.80;;;29.40;52.60;;;;;;4966070;28;20029;-81
2021/06/11 12:09:59;;;;;;;4.22;3.00;;;29.40;52.60;;;;;;4984262;28;20110;-81
2021/06/11 12:12:26;;;;;;;4.30;3.03;;;29.40;52.60;;;;;;4975079;28;20081;-81
2021/06/11 12:14:52;;;;;;;4.55;3.28;;;29.40;52.60;;;;;;4976614;28;20018;-80
2021/06/11 12:17:18;;;;;;;4.38;3.03;;;29.40;52.60;;;;;;4939481;28;20039;-81
2021/06/11 12:19:44;;;;;;;4.25;3.05;;;29.40;52.60;;;;;;4972765;28;20106;-81
2021/06/11 12:22:10;;;;;;;4.03;3.08;;;29.40;52.60;;;;;;4971778;28;20122;-81
2021/06/11 12:24:36;;;;;;;4.55;3.50;;;29.40;52.60;;;;;;4939415;28;20496;-80
2021/06/11 12:27:02;;;;;;;4.53;3.33;;;29.40;52.60;;;;;;4941140;28;20423;-81
2021/06/11 12:29:28;;;;;;;4.55;3.00;;;29.40;52.60;;;;;;4983107;28;20038;-78
2021/06/11 12:31:54;;;;;;;4.07;3.00;;;29.40;52.60;;;;;;4970461;28;20098;-79
2021/06/11 12:34:20;;;;;;;5.07;3.50;;;29.50;52.60;;;;;;4973337;28;20046;-81
2021/06/11 12:36:46;;;;;;;6.13;4.75;;;29.50;52.20;;;;;;4936891;28;20035;-80
2021/06/11 12:39:13;;;;;;;6.63;5.10;;;29.40;51.90;;;;;;4973466;28;20023;-83
2021/06/11 12:41:39;;;;;;;7.13;5.38;;;29.40;51.80;;;;;;4937880;28;20039;-82
2021/06/11 12:44:16;;;;;;;6.63;5.00;;;29.40;51.60;;;;;;4986191;28;20030;-81
2021/06/11 12:46:48;;;;;;;6.28;4.85;;;29.30;51.40;;;;;;4937438;28;20122;-80
2021/06/11 12:49:15;;;;;;;7.72;5.10;;;29.30;51.30;;;;;;4972730;28;20050;-80
2021/06/11 12:51:42;;;;;;;8.40;5.93;;;29.30;51.40;;;;;;4973184;28;20019;-78
2021/06/11 12:54:08;;;;;;;7.68;5.70;;;29.20;51.30;;;;;;4969453;28;20109;-80
2021/06/11 12:56:35;;;;;;;7.43;5.80;;;29.20;51.10;;;;;;4971743;28;20077;-81